createdAt,value
2022-12-31T00:01:56.099Z,100094.06
2022-12-31T00:04:23.971Z,100093.31
2022-12-31T00:06:51.756Z,100084.50
2022-12-31T00:09:20.978Z,100081.44
2022-12-31T00:11:49.057Z,100072.63
2022-12-31T00:14:16.866Z,100074.47
2022-12-31T00:16:44.740Z,100085.34
2022-12-31T00:19:13.223Z,100101.25
2022-12-31T00:21:41.638Z,100101.63
2022-12-31T00:24:12.002Z,100099.22
2022-12-31T00:26:41.245Z,100110.34
2022-12-31T00:29:09.037Z,100112.47
2022-12-31T00:31:38.918Z,100124.84
2022-12-31T00:34:07.370Z,100131.34
2022-12-31T00:36:37.755Z,100133.72
2022-12-31T00:39:08.698Z,100130.31
2022-12-31T00:41:37.791Z,100120.56
2022-12-31T00:44:07.107Z,100147.66
2022-12-31T00:49:01.605Z,100129.53
2022-12-31T00:51:30.255Z,100120.56
2022-12-31T00:53:58.543Z,100125.72
2022-12-31T00:56:28.546Z,100139.91
2022-12-31T00:58:57.451Z,100127.59
2022-12-31T01:01:28.361Z,100124.44
2022-12-31T01:03:59.513Z,100123.69
2022-12-31T01:06:27.749Z,100138.69
2022-12-31T01:08:56.280Z,100134.00
2022-12-31T01:11:29.233Z,100138.28
2022-12-31T01:13:59.995Z,100134.44
2022-12-31T01:16:31.765Z,100132.91
2022-12-31T01:19:00.683Z,100134.44
2022-12-31T01:21:29.681Z,100145.88
2022-12-31T01:23:58.526Z,100163.44
2022-12-31T01:26:26.977Z,100162.66
2022-12-31T01:28:55.225Z,100160.28
2022-12-31T01:31:24.459Z,100180.00
2022-12-31T01:33:54.263Z,100189.00
2022-12-31T01:36:26.179Z,100192.66
2022-12-31T01:38:55.118Z,100184.97
2022-12-31T01:41:25.268Z,100185.06
2022-12-31T01:43:55.228Z,100177.19
2022-12-31T01:46:28.408Z,100166.56
2022-12-31T01:49:01.773Z,100174.97
2022-12-31T01:51:33.804Z,100180.78
2022-12-31T01:54:03.811Z,100180.78
2022-12-31T01:56:31.937Z,100157.69
2022-12-31T01:59:00.922Z,100160.25
2022-12-31T02:01:31.308Z,100147.25
2022-12-31T02:04:07.558Z,100117.13
2022-12-31T02:06:39.548Z,100126.19
2022-12-31T02:09:08.651Z,100154.75
2022-12-31T02:11:38.067Z,100159.56
2022-12-31T02:14:09.608Z,100158.09
2022-12-31T02:16:45.823Z,100167.34
2022-12-31T02:19:47.347Z,100166.56
2022-12-31T02:22:26.640Z,100162.28
2022-12-31T02:25:14.652Z,100157.31
2022-12-31T02:27:59.811Z,100171.34
2022-12-31T02:30:33.569Z,100183.41
2022-12-31T02:33:11.582Z,100188.47
2022-12-31T02:35:49.351Z,100185.72
2022-12-31T02:38:20.816Z,100175.31
2022-12-31T02:40:49.266Z,100182.13
2022-12-31T02:43:17.222Z,100185.22
2022-12-31T02:45:50.940Z,100175.13
2022-12-31T02:48:36.900Z,100186.00
2022-12-31T02:51:19.811Z,100194.97
2022-12-31T02:54:18.775Z,100193.09
2022-12-31T02:56:54.255Z,100178.47
2022-12-31T02:59:44.542Z,100176.94
2022-12-31T03:02:19.518Z,100166.94
2022-12-31T03:04:52.390Z,100178.56
2022-12-31T03:07:23.036Z,100187.94
2022-12-31T03:09:51.808Z,100178.88
2022-12-31T03:12:39.578Z,100181.28
2022-12-31T03:15:19.806Z,100175.94
2022-12-31T03:17:52.236Z,100177.06
2022-12-31T03:20:38.081Z,100174.06
2022-12-31T03:23:07.693Z,100179.16
2022-12-31T03:25:35.280Z,100179.34
2022-12-31T03:28:05.645Z,100169.41
2022-12-31T03:30:34.190Z,100154.53
2022-12-31T03:33:05.018Z,100164.28
2022-12-31T03:35:35.616Z,100175.22
2022-12-31T03:38:04.189Z,100179.34
2022-12-31T03:40:34.869Z,100195.38
2022-12-31T03:43:02.763Z,100209.06
2022-12-31T03:45:30.775Z,100234.31
2022-12-31T03:47:58.947Z,100248.19
2022-12-31T03:50:28.494Z,100257.84
2022-12-31T03:52:56.484Z,100264.34
2022-12-31T03:55:24.304Z,100260.91
2022-12-31T03:57:52.239Z,100259.28
2022-12-31T04:00:22.775Z,100229.59
2022-12-31T04:02:51.254Z,100223.03
2022-12-31T04:05:20.100Z,100210.03
2022-12-31T04:07:51.966Z,100216.97
2022-12-31T04:10:21.124Z,100217.88
2022-12-31T04:12:50.045Z,100249.13
2022-12-31T04:15:20.675Z,100251.94
2022-12-31T04:17:49.181Z,100263.91
2022-12-31T04:20:17.437Z,100252.59
2022-12-31T04:22:45.307Z,100236.19
2022-12-31T04:25:14.721Z,100229.69
2022-12-31T04:27:44.074Z,100231.41
2022-12-31T04:30:13.506Z,100219.69
2022-12-31T04:32:41.570Z,100216.81
2022-12-31T04:35:10.730Z,100215.88
2022-12-31T04:37:38.631Z,100231.63
2022-12-31T04:40:07.792Z,100242.34
2022-12-31T04:42:37.280Z,100257.06
2022-12-31T04:45:06.025Z,100267.53
2022-12-31T04:47:33.928Z,100261.34
2022-12-31T04:50:01.729Z,100234.41
2022-12-31T04:52:29.601Z,100265.47
2022-12-31T04:54:57.427Z,100271.69
2022-12-31T04:57:25.395Z,100267.50
2022-12-31T04:59:54.575Z,100263.38
2022-12-31T05:02:22.654Z,100251.44
2022-12-31T05:04:50.630Z,100277.41
2022-12-31T05:07:18.961Z,100275.88
2022-12-31T05:09:46.863Z,100275.03
2022-12-31T05:12:15.813Z,100279.91
2022-12-31T05:14:43.711Z,100283.41
2022-12-31T05:17:12.951Z,100279.22
2022-12-31T05:19:40.746Z,100293.69
2022-12-31T05:22:26.386Z,100294.03
2022-12-31T05:24:54.271Z,100302.94
2022-12-31T05:27:22.631Z,100309.94
2022-12-31T05:29:50.483Z,100310.13
2022-12-31T05:32:19.737Z,100314.56
2022-12-31T05:34:48.296Z,100310.13
2022-12-31T05:37:16.083Z,100325.38
2022-12-31T05:39:43.853Z,100317.16
2022-12-31T05:42:11.647Z,100305.72
2022-12-31T05:44:39.489Z,100308.94
2022-12-31T05:47:07.301Z,100296.25
2022-12-31T05:49:36.447Z,100314.09
2022-12-31T05:52:04.492Z,100324.13
2022-12-31T05:54:32.398Z,100316.59
2022-12-31T05:57:00.422Z,100283.84
2022-12-31T05:59:28.342Z,100313.91
2022-12-31T06:01:56.491Z,100308.00
2022-12-31T06:04:24.723Z,100293.78
2022-12-31T06:06:53.998Z,100295.56
2022-12-31T06:09:22.100Z,100298.16
2022-12-31T06:11:50.012Z,100303.22
2022-12-31T06:14:18.203Z,100307.31
2022-12-31T06:16:46.058Z,100319.53
2022-12-31T06:19:13.927Z,100327.66
2022-12-31T06:21:41.734Z,100326.72
2022-12-31T06:24:10.986Z,100326.63
2022-12-31T06:26:38.845Z,100334.34
2022-12-31T06:29:06.701Z,100332.38
2022-12-31T06:31:34.635Z,100344.19
2022-12-31T06:34:02.538Z,100357.44
2022-12-31T06:36:30.376Z,100366.13
2022-12-31T06:38:58.154Z,100365.94
2022-12-31T06:41:27.314Z,100352.56
2022-12-31T06:43:55.116Z,100347.13
2022-12-31T06:46:22.970Z,100336.66
2022-12-31T06:48:50.818Z,100335.13
2022-12-31T06:51:21.143Z,100340.09
2022-12-31T06:53:50.664Z,100321.19
2022-12-31T06:56:21.587Z,100345.72
2022-12-31T06:58:51.681Z,100346.75
2022-12-31T07:01:50.396Z,100355.16
2022-12-31T07:04:42.791Z,100334.63
2022-12-31T07:07:16.985Z,100371.38
2022-12-31T07:09:56.705Z,100386.88
2022-12-31T07:12:37.516Z,100384.75
2022-12-31T07:15:13.895Z,100384.94
2022-12-31T07:17:49.546Z,100390.44
2022-12-31T07:20:19.563Z,100377.63
2022-12-31T07:22:48.331Z,100358.44
2022-12-31T07:25:17.928Z,100369.94
2022-12-31T07:28:00.202Z,100381.03
2022-12-31T07:30:37.450Z,100381.88
2022-12-31T07:33:31.127Z,100392.00
2022-12-31T07:36:16.925Z,100382.25
2022-12-31T07:38:57.506Z,100387.53
2022-12-31T07:41:42.353Z,100400.91
2022-12-31T07:44:29.453Z,100419.41
2022-12-31T07:47:01.335Z,100426.25
2022-12-31T07:49:31.114Z,100424.88
2022-12-31T07:51:59.566Z,100415.09
2022-12-31T07:54:27.392Z,100425.22
2022-12-31T07:56:55.341Z,100422.91
2022-12-31T07:59:37.084Z,100421.09
2022-12-31T08:02:15.093Z,100411.16
2022-12-31T08:04:51.557Z,100415.63
2022-12-31T08:07:30.944Z,100401.19
2022-12-31T08:10:14.045Z,100407.16
2022-12-31T08:12:47.955Z,100411.63
2022-12-31T08:15:18.252Z,100406.13
2022-12-31T08:17:47.918Z,100417.78
2022-12-31T08:20:17.750Z,100428.69
2022-12-31T08:23:11.238Z,100414.66
2022-12-31T08:25:47.286Z,100423.50
2022-12-31T08:28:26.176Z,100419.47
2022-12-31T08:31:02.685Z,100427.69
2022-12-31T08:33:39.873Z,100432.16
2022-12-31T08:36:16.548Z,100441.16
2022-12-31T08:38:51.449Z,100435.13
2022-12-31T08:41:28.476Z,100435.28
2022-12-31T08:44:05.515Z,100436.19
2022-12-31T08:46:45.610Z,100435.59
2022-12-31T08:49:15.752Z,100432.41
2022-12-31T08:51:44.025Z,100435.16
2022-12-31T08:54:13.176Z,100428.63
2022-12-31T08:56:50.454Z,100450.72
2022-12-31T08:59:33.593Z,100457.66
2022-12-31T09:02:23.682Z,100456.41
2022-12-31T09:05:05.772Z,100462.41
2022-12-31T09:07:39.432Z,100461.63
2022-12-31T09:10:18.397Z,100453.06
2022-12-31T09:12:59.447Z,100455.63
2022-12-31T09:15:34.422Z,100451.50
2022-12-31T09:18:02.890Z,100452.63
2022-12-31T09:20:43.701Z,100451.41
2022-12-31T09:23:13.458Z,100431.00
2022-12-31T09:25:47.500Z,100467.56
2022-12-31T09:28:19.651Z,100455.81
2022-12-31T09:30:55.725Z,100456.84
2022-12-31T09:33:37.686Z,100453.72
2022-12-31T09:36:11.394Z,100460.25
2022-12-31T09:38:47.121Z,100461.38
2022-12-31T09:41:17.395Z,100452.09
2022-12-31T09:44:16.273Z,100465.06
2022-12-31T09:47:12.232Z,100460.25
2022-12-31T09:50:18.039Z,100449.53
2022-12-31T09:53:13.409Z,100440.97
2022-12-31T09:55:49.551Z,100411.09
2022-12-31T09:58:35.608Z,100421.84
2022-12-31T10:01:14.953Z,100420.88
2022-12-31T10:04:10.626Z,100423.44
2022-12-31T10:06:47.601Z,100433.44
2022-12-31T10:09:35.264Z,100443.66
2022-12-31T10:12:22.876Z,100419.94
2022-12-31T10:15:09.954Z,100431.63
2022-12-31T10:17:53.296Z,100438.16
2022-12-31T10:20:51.910Z,100441.97
2022-12-31T10:23:47.685Z,100444.91
2022-12-31T10:26:38.651Z,100432.13
2022-12-31T10:29:17.868Z,100453.06
2022-12-31T10:31:56.708Z,100461.16
2022-12-31T10:34:27.978Z,100467.72
2022-12-31T10:37:00.660Z,100466.16
2022-12-31T10:39:39.912Z,100461.41
2022-12-31T10:42:51.588Z,100463.34
2022-12-31T10:45:45.237Z,100457.72
2022-12-31T10:48:44.242Z,100453.25
2022-12-31T10:51:45.616Z,100439.78
2022-12-31T10:54:52.070Z,100446.47
2022-12-31T10:58:04.244Z,100438.22
2022-12-31T11:00:39.457Z,100429.31
2022-12-31T11:03:48.352Z,100424.63
2022-12-31T11:06:52.754Z,100410.78
2022-12-31T11:09:51.239Z,100432.25
2022-12-31T11:12:38.209Z,100430.91
2022-12-31T11:15:32.554Z,100439.72
2022-12-31T11:18:13.804Z,100392.94
2022-12-31T11:21:00.221Z,100415.44
2022-12-31T11:23:38.010Z,100412.25
2022-12-31T11:26:23.145Z,100402.44
2022-12-31T11:29:05.728Z,100415.81
2022-12-31T11:31:46.505Z,100425.03
2022-12-31T11:34:35.214Z,100418.31
2022-12-31T11:37:19.423Z,100404.28
2022-12-31T11:40:00.534Z,100412.41
2022-12-31T11:42:41.456Z,100413.97
2022-12-31T11:45:16.224Z,100415.56
2022-12-31T11:51:00.419Z,100406.16
2022-12-31T11:53:46.083Z,100388.19
2022-12-31T11:56:18.262Z,100406.00
2022-12-31T11:58:49.302Z,100397.47
2022-12-31T12:01:23.171Z,100399.88
2022-12-31T12:03:52.484Z,100392.47
2022-12-31T12:06:30.593Z,100385.69
2022-12-31T12:09:04.155Z,100395.75
2022-12-31T12:11:35.657Z,100399.88
2022-12-31T12:14:19.945Z,100399.88
2022-12-31T12:16:48.056Z,100397.31
2022-12-31T12:19:22.549Z,100392.16
2022-12-31T12:21:51.231Z,100394.91
2022-12-31T12:24:21.437Z,100388.63
2022-12-31T12:26:49.550Z,100381.44
2022-12-31T12:29:20.840Z,100383.47
2022-12-31T12:32:00.755Z,100372.78
2022-12-31T12:34:32.716Z,100371.72
2022-12-31T12:37:01.333Z,100364.25
2022-12-31T12:39:31.079Z,100365.31
2022-12-31T12:42:04.300Z,100361.31
2022-12-31T12:44:32.859Z,100365.56
2022-12-31T12:47:04.432Z,100369.00
2022-12-31T12:49:39.867Z,100373.31
2022-12-31T12:52:20.630Z,100384.22
2022-12-31T12:55:05.229Z,100385.00
2022-12-31T12:57:39.881Z,100376.59
2022-12-31T13:00:17.865Z,100372.38
2022-12-31T13:03:12.327Z,100376.41
2022-12-31T13:05:52.998Z,100390.41
2022-12-31T13:08:35.472Z,100388.53
2022-12-31T13:11:26.214Z,100387.47
2022-12-31T13:14:00.863Z,100374.88
2022-12-31T13:16:37.986Z,100377.97
2022-12-31T13:19:14.306Z,100380.25
2022-12-31T13:21:51.752Z,100374.19
2022-12-31T13:24:34.392Z,100369.06
2022-12-31T13:27:09.782Z,100370.53
2022-12-31T13:29:40.877Z,100368.16
2022-12-31T13:32:13.590Z,100379.03
2022-12-31T13:34:45.466Z,100356.84
2022-12-31T13:37:26.009Z,100379.31
2022-12-31T13:40:00.663Z,100376.91
2022-12-31T13:42:36.002Z,100383.81
2022-12-31T13:45:07.590Z,100384.84
2022-12-31T13:47:40.689Z,100387.63
2022-12-31T13:50:18.623Z,100394.97
2022-12-31T13:52:51.298Z,100396.69
2022-12-31T13:55:24.010Z,100396.31
2022-12-31T13:57:55.765Z,100403.47
2022-12-31T14:00:25.539Z,100402.28
2022-12-31T14:03:03.434Z,100394.13
2022-12-31T14:05:36.215Z,100399.78
2022-12-31T14:08:07.302Z,100400.53
2022-12-31T14:10:45.643Z,100401.31
2022-12-31T14:13:34.525Z,100410.25
2022-12-31T14:16:16.182Z,100412.66
2022-12-31T14:18:53.575Z,100415.81
2022-12-31T14:21:25.853Z,100407.34
2022-12-31T14:24:02.738Z,100396.03
2022-12-31T14:26:35.048Z,100420.56
2022-12-31T14:29:19.069Z,100415.59
2022-12-31T14:32:08.424Z,100414.72
2022-12-31T14:34:49.604Z,100415.16
2022-12-31T14:37:30.738Z,100421.50
2022-12-31T14:40:15.770Z,100425.53
2022-12-31T14:42:53.897Z,100394.00
2022-12-31T14:45:33.594Z,100391.06
2022-12-31T14:48:11.796Z,100413.97
2022-12-31T14:50:39.973Z,100419.56
2022-12-31T14:53:10.040Z,100421.91
2022-12-31T14:55:41.676Z,100427.31
2022-12-31T14:58:28.244Z,100419.28
2022-12-31T15:00:59.211Z,100421.38
2022-12-31T15:03:37.923Z,100425.13
2022-12-31T15:06:48.359Z,100423.09
2022-12-31T15:09:35.543Z,100431.06
2022-12-31T15:12:21.970Z,100429.19
2022-12-31T15:15:07.125Z,100431.53
2022-12-31T15:17:49.918Z,100434.81
2022-12-31T15:20:36.276Z,100438.88
2022-12-31T15:23:15.652Z,100438.88
2022-12-31T15:26:03.591Z,100434.66
2022-12-31T15:28:36.243Z,100430.47
2022-12-31T15:31:19.070Z,100436.28
2022-12-31T15:33:57.760Z,100443.84
2022-12-31T15:36:27.570Z,100443.06
2022-12-31T15:39:07.453Z,100444.78
2022-12-31T15:42:03.112Z,100447.97
2022-12-31T15:44:35.702Z,100441.94
2022-12-31T15:47:17.187Z,100450.97
2022-12-31T15:49:47.931Z,100453.38
2022-12-31T15:52:19.106Z,100431.13
2022-12-31T15:54:50.721Z,100452.53
2022-12-31T15:57:25.071Z,100450.13
2022-12-31T15:59:59.268Z,100436.88
2022-12-31T16:02:29.830Z,100446.97
2022-12-31T16:04:58.465Z,100456.09
2022-12-31T16:07:28.397Z,100461.91
2022-12-31T16:09:59.535Z,100461.13
2022-12-31T16:12:33.682Z,100450.38
2022-12-31T16:15:04.968Z,100446.97
2022-12-31T16:17:34.988Z,100462.94
2022-12-31T16:20:22.485Z,100447.13
2022-12-31T16:22:54.750Z,100441.19
2022-12-31T16:25:31.893Z,100441.97
2022-12-31T16:28:03.606Z,100439.38
2022-12-31T16:30:35.712Z,100440.00
2022-12-31T16:33:06.563Z,100453.06
2022-12-31T16:35:37.341Z,100454.63
2022-12-31T16:38:14.062Z,100461.00
2022-12-31T16:40:43.974Z,100466.00
2022-12-31T16:43:26.887Z,100460.16
2022-12-31T16:45:59.218Z,100470.69
2022-12-31T16:48:27.717Z,100480.50
2022-12-31T16:50:57.888Z,100491.06
2022-12-31T16:53:28.214Z,100488.75
2022-12-31T16:56:01.154Z,100493.66
2022-12-31T16:58:32.131Z,100487.72
2022-12-31T17:01:13.340Z,100481.03
2022-12-31T17:03:46.795Z,100451.84
2022-12-31T17:06:17.615Z,100486.25
2022-12-31T17:08:48.728Z,100493.72
2022-12-31T17:11:24.104Z,100501.19
2022-12-31T17:13:57.552Z,100486.72
2022-12-31T17:16:27.335Z,100492.72
2022-12-31T17:18:55.720Z,100489.97
2022-12-31T17:21:27.108Z,100474.13
2022-12-31T17:23:57.707Z,100479.41
2022-12-31T17:26:28.524Z,100480.50
2022-12-31T17:28:58.858Z,100493.88
2022-12-31T17:31:36.688Z,100484.22
2022-12-31T17:34:21.540Z,100478.34
2022-12-31T17:37:02.414Z,100505.81
2022-12-31T17:39:44.227Z,100504.16
2022-12-31T17:42:13.658Z,100504.28
2022-12-31T17:44:44.760Z,100496.03
2022-12-31T17:47:17.206Z,100500.25
2022-12-31T17:49:46.833Z,100502.59
2022-12-31T17:52:16.054Z,100490.78
2022-12-31T17:54:43.939Z,100504.28
2022-12-31T17:57:24.531Z,100503.22
2022-12-31T17:59:52.558Z,100478.69
2022-12-31T18:02:21.961Z,100493.88
2022-12-31T18:04:49.912Z,100486.09
2022-12-31T18:07:18.051Z,100489.06
2022-12-31T18:09:46.095Z,100482.84
2022-12-31T18:12:15.794Z,100481.66
2022-12-31T18:14:46.555Z,100489.22
2022-12-31T18:17:16.562Z,100489.03
2022-12-31T18:20:04.258Z,100501.44
2022-12-31T18:22:33.152Z,100503.84
2022-12-31T18:25:01.009Z,100500.41
2022-12-31T18:27:30.562Z,100488.84
2022-12-31T18:30:04.502Z,100479.72
2022-12-31T18:32:34.010Z,100490.63
2022-12-31T18:35:03.317Z,100484.53
2022-12-31T18:37:33.232Z,100488.41
2022-12-31T18:40:01.121Z,100476.19
2022-12-31T18:42:29.664Z,100474.56
2022-12-31T18:44:57.521Z,100483.09
2022-12-31T18:47:25.392Z,100466.16
2022-12-31T18:49:53.251Z,100482.97
2022-12-31T18:52:25.067Z,100476.72
2022-12-31T18:54:53.054Z,100478.75
2022-12-31T18:57:20.863Z,100476.88
2022-12-31T18:59:48.732Z,100486.81
2022-12-31T19:02:19.357Z,100484.94
2022-12-31T19:04:48.086Z,100451.03
2022-12-31T19:07:15.917Z,100478.25
2022-12-31T19:09:46.701Z,100481.69
2022-12-31T19:12:18.197Z,100476.53
2022-12-31T19:14:46.133Z,100494.56
2022-12-31T19:17:14.468Z,100497.59
2022-12-31T19:19:42.298Z,100482.25
2022-12-31T19:22:15.700Z,100480.69
2022-12-31T19:24:44.947Z,100462.34
2022-12-31T19:27:13.157Z,100486.78
2022-12-31T19:29:41.053Z,100495.09
2022-12-31T19:32:09.002Z,100480.88
2022-12-31T19:34:36.920Z,100475.72
2022-12-31T19:37:04.910Z,100479.47
2022-12-31T19:39:32.870Z,100489.00
2022-12-31T19:42:02.176Z,100492.19
2022-12-31T19:44:30.064Z,100492.00
2022-12-31T19:46:58.015Z,100495.03
2022-12-31T19:49:25.879Z,100486.38
2022-12-31T19:51:53.700Z,100480.72
2022-12-31T19:54:22.867Z,100485.88
2022-12-31T19:56:52.066Z,100485.94
2022-12-31T19:59:21.658Z,100501.72
2022-12-31T20:01:49.593Z,100503.03
2022-12-31T20:04:18.298Z,100503.44
2022-12-31T20:06:46.206Z,100507.47
2022-12-31T20:09:14.175Z,100502.31
2022-12-31T20:11:41.971Z,100501.63
2022-12-31T20:14:10.105Z,100501.47
2022-12-31T20:16:39.479Z,100508.53
2022-12-31T20:19:07.358Z,100502.00
2022-12-31T20:21:35.310Z,100503.91
2022-12-31T20:24:03.401Z,100507.75
2022-12-31T20:26:31.341Z,100484.69
2022-12-31T20:28:59.191Z,100482.72
2022-12-31T20:31:27.368Z,100510.91
2022-12-31T20:33:56.884Z,100507.50
2022-12-31T20:36:26.336Z,100494.44
2022-12-31T20:38:54.255Z,100500.81
2022-12-31T20:41:23.882Z,100505.19
2022-12-31T20:43:52.048Z,100509.38
2022-12-31T20:46:22.243Z,100496.00
2022-12-31T20:48:52.277Z,100501.22
2022-12-31T20:51:23.872Z,100497.81
2022-12-31T20:53:55.131Z,100496.00
2022-12-31T20:56:24.255Z,100492.56
2022-12-31T20:58:52.053Z,100498.50
2022-12-31T21:01:20.517Z,100502.16
2022-12-31T21:04:07.042Z,100521.75
2022-12-31T21:06:36.927Z,100512.38
2022-12-31T21:09:08.109Z,100525.63
2022-12-31T21:11:54.468Z,100512.59
2022-12-31T21:14:26.352Z,100509.78
2022-12-31T21:16:54.477Z,100510.34
2022-12-31T21:19:22.356Z,100479.81
2022-12-31T21:21:51.644Z,100517.56
2022-12-31T21:24:23.795Z,100506.84
2022-12-31T21:26:56.157Z,100512.69
2022-12-31T21:29:24.559Z,100509.34
2022-12-31T21:31:52.529Z,100510.47
2022-12-31T21:34:20.426Z,100514.06
2022-12-31T21:36:48.615Z,100503.38
2022-12-31T21:39:17.949Z,100507.78
2022-12-31T21:41:55.289Z,100502.06
2022-12-31T21:44:24.656Z,100512.00
2022-12-31T21:47:34.068Z,100509.34
2022-12-31T21:49:44.632Z,100522.97
2022-12-31T21:52:27.606Z,100522.59
2022-12-31T21:55:16.000Z,100525.66
2022-12-31T21:58:15.737Z,100527.47
2022-12-31T22:00:50.261Z,100521.06
2022-12-31T22:03:28.198Z,100521.06
2022-12-31T22:05:59.748Z,100521.81
2022-12-31T22:08:29.315Z,100529.19
2022-12-31T22:10:58.534Z,100525.47
2022-12-31T22:13:26.488Z,100519.56
2022-12-31T22:16:03.902Z,100514.09
2022-12-31T22:18:35.033Z,100518.22
2022-12-31T22:21:05.243Z,100516.31
2022-12-31T22:23:35.362Z,100515.63
2022-12-31T22:26:07.614Z,100504.31
2022-12-31T22:28:39.270Z,100514.59
2022-12-31T22:31:08.181Z,100511.94
2022-12-31T22:33:36.180Z,100513.16
2022-12-31T22:36:06.171Z,100513.50
2022-12-31T22:38:35.407Z,100508.69
2022-12-31T22:41:07.929Z,100508.97
2022-12-31T22:43:38.822Z,100511.00
2022-12-31T22:46:08.606Z,100502.56
2022-12-31T22:48:37.069Z,100489.88
2022-12-31T22:51:05.293Z,100502.69
2022-12-31T22:53:33.377Z,100491.22
2022-12-31T22:56:01.285Z,100505.81
2022-12-31T22:58:30.509Z,100500.81
2022-12-31T23:00:58.339Z,100486.41
2022-12-31T23:03:26.438Z,100491.75
2022-12-31T23:05:54.417Z,100499.09
2022-12-31T23:08:23.963Z,100508.44
2022-12-31T23:11:05.746Z,100505.25
2022-12-31T23:13:57.310Z,100510.75
2022-12-31T23:16:44.660Z,100505.88
2022-12-31T23:19:31.189Z,100505.16
2022-12-31T23:22:16.846Z,100503.38
2022-12-31T23:24:44.852Z,100506.31
2022-12-31T23:27:13.195Z,100500.66
2022-12-31T23:29:47.012Z,100502.63
2022-12-31T23:32:16.437Z,100505.88
2022-12-31T23:34:44.988Z,100507.31
2022-12-31T23:37:13.424Z,100517.34
2022-12-31T23:39:41.873Z,100514.88
2022-12-31T23:42:10.057Z,100494.09
2022-12-31T23:44:38.077Z,100519.06
2022-12-31T23:47:07.331Z,100509.31
2022-12-31T23:49:35.247Z,100511.03
2022-12-31T23:52:03.396Z,100516.00
2022-12-31T23:54:31.412Z,100513.81
2022-12-31T23:56:59.273Z,100520.88
2022-12-31T23:59:28.545Z,100519.91
